Bemis, South Dakota
Current Conditions -  °F | °C
As of 6:53 AM on Wednesday 22 Oct 2014 (Local Time) from KATY Reporting Station
Clear Clear  
Wind Chill: 52°   Ceiling: Unl
Heat Index: 52°   Visibility: 10mi
Dew Point: 43°   Wind: 24mph
Humidity: 71%   Direction: 170°S
Pressure: 29.9"   Gusts: 29mph
Location:  44.9022°N, 96.7801°W
Report Text: KATY 221153Z AUTO 17021G25KT 10SM CLR 11/06 A2990 RMK AO2 PK WND 17028/1109 SLP123 T01110061 10128 20111 56009
Loading
Personal Weather Stations






























Interactive Weather Map
Tropical Storm Tracking
New forecast layout! Learn more

10-Day Weather Forecast

Advertisements
Track Severe Weather on mobile